Time;durP1;ratioP1;P1;durP2;ratioP2;P2;SDS_P1;SDS_P2;PMS_P1;PMS_P2;Temp;Humidity;BMP_temperature;BMP_pressure;BME280_temperature;BME280_humidity;BME280_pressure;Samples;Min_cycle;Max_cycle;Signal;HPM_P1;HPM_P2
2021/10/03 00:00:57;;;;;;;0.50;0.20;;;17.00;99.90;;;;;;4995968;28;20034;-73
2021/10/03 00:03:25;;;;;;;0.43;0.20;;;17.00;99.90;;;;;;5003739;28;20053;-73
2021/10/03 00:05:52;;;;;;;0.40;0.20;;;17.00;99.90;;;;;;5001233;28;20041;-73
2021/10/03 00:08:19;;;;;;;0.50;0.20;;;17.10;99.90;;;;;;4998922;28;20029;-73
2021/10/03 00:10:45;;;;;;;0.30;0.13;;;17.10;99.90;;;;;;4995456;28;20117;-73
2021/10/03 00:13:11;;;;;;;1.15;0.20;;;17.10;99.90;;;;;;5000955;28;20022;-72
2021/10/03 00:15:37;;;;;;;0.30;0.17;;;17.10;99.90;;;;;;4999260;28;20049;-73
2021/10/03 00:18:05;;;;;;;0.77;0.22;;;17.10;99.90;;;;;;5009747;28;20050;-75
2021/10/03 00:20:30;;;;;;;1.55;0.13;;;17.10;99.90;;;;;;4994988;28;20081;-73
2021/10/03 00:22:56;;;;;;;0.70;0.20;;;17.10;99.90;;;;;;4994310;28;20058;-74
2021/10/03 00:25:25;;;;;;;0.32;0.10;;;17.20;99.90;;;;;;4998389;28;20036;-72
2021/10/03 00:27:53;;;;;;;0.38;0.10;;;17.20;99.90;;;;;;5007142;28;20088;-72
2021/10/03 00:30:19;;;;;;;0.77;0.20;;;17.20;99.90;;;;;;4993930;28;20468;-73
2021/10/03 00:32:45;;;;;;;0.30;0.10;;;17.20;99.90;;;;;;4997557;28;20060;-74
2021/10/03 00:35:11;;;;;;;0.52;0.17;;;17.20;99.90;;;;;;4996819;28;20060;-72
2021/10/03 00:37:37;;;;;;;0.38;0.20;;;17.20;99.90;;;;;;5004222;28;20026;-74
2021/10/03 00:40:04;;;;;;;0.40;0.10;;;17.20;99.90;;;;;;5001730;28;20028;-72
2021/10/03 00:42:29;;;;;;;2.35;0.10;;;17.20;99.90;;;;;;4993448;28;20033;-72
2021/10/03 00:44:55;;;;;;;0.30;0.10;;;17.20;99.90;;;;;;4999256;28;20041;-73
2021/10/03 00:47:21;;;;;;;0.40;0.20;;;17.20;99.90;;;;;;4993260;28;20047;-74
2021/10/03 00:49:47;;;;;;;0.50;0.15;;;17.20;99.90;;;;;;4994881;28;20034;-74
2021/10/03 00:52:15;;;;;;;1.10;0.20;;;17.20;99.90;;;;;;5005527;28;20041;-72
2021/10/03 00:54:40;;;;;;;0.57;0.10;;;17.20;99.90;;;;;;4995028;28;20076;-72
2021/10/03 00:57:06;;;;;;;0.32;0.10;;;17.20;99.90;;;;;;5008639;28;20474;-74
2021/10/03 00:59:33;;;;;;;0.35;0.10;;;17.10;99.90;;;;;;5007080;28;20088;-74
2021/10/03 01:01:59;;;;;;;0.45;0.10;;;17.10;99.90;;;;;;4997251;28;20074;-72
2021/10/03 01:04:25;;;;;;;0.32;0.10;;;17.10;99.90;;;;;;4997081;28;20041;-75
2021/10/03 01:06:51;;;;;;;0.30;0.10;;;17.10;99.90;;;;;;5005267;28;20041;-74
2021/10/03 01:09:19;;;;;;;0.65;0.20;;;17.10;99.90;;;;;;5000366;28;20036;-72
2021/10/03 01:11:44;;;;;;;0.80;0.20;;;17.10;99.90;;;;;;5003421;28;20428;-74
2021/10/03 01:14:10;;;;;;;0.30;0.10;;;17.10;99.90;;;;;;4999981;28;20084;-73
2021/10/03 01:16:36;;;;;;;0.50;0.17;;;17.10;99.90;;;;;;5007071;28;20030;-74
2021/10/03 01:19:02;;;;;;;0.30;0.10;;;17.10;99.90;;;;;;5001683;28;20061;-75
2021/10/03 01:21:27;;;;;;;1.08;0.10;;;17.10;99.90;;;;;;4996955;28;20034;-74
2021/10/03 01:23:55;;;;;;;0.40;0.10;;;17.10;99.90;;;;;;5001776;28;20036;-73
2021/10/03 01:26:20;;;;;;;1.38;0.10;;;17.10;99.90;;;;;;4995507;28;20026;-72
2021/10/03 01:28:46;;;;;;;0.85;0.20;;;17.00;99.90;;;;;;5003028;28;20065;-72
2021/10/03 01:31:12;;;;;;;0.75;0.20;;;17.00;99.90;;;;;;4993700;28;20030;-71
2021/10/03 01:33:38;;;;;;;0.60;0.13;;;17.00;99.90;;;;;;5004877;28;20038;-73
2021/10/03 01:36:06;;;;;;;0.25;0.10;;;17.00;99.90;;;;;;5002804;28;20053;-74
2021/10/03 01:38:32;;;;;;;0.20;0.10;;;16.90;99.90;;;;;;5002068;28;20084;-75
2021/10/03 01:40:58;;;;;;;0.20;0.10;;;16.90;99.90;;;;;;4992763;28;20392;-74
2021/10/03 01:43:24;;;;;;;0.70;0.13;;;16.90;99.90;;;;;;4998827;28;20033;-73
2021/10/03 01:45:49;;;;;;;0.32;0.10;;;16.90;99.90;;;;;;5006029;28;20504;-72
2021/10/03 01:48:18;;;;;;;1.30;0.10;;;16.90;99.90;;;;;;5002741;28;20069;-72
2021/10/03 01:50:48;;;;;;;0.30;0.10;;;16.90;99.90;;;;;;4997208;28;20467;-71
2021/10/03 01:53:18;;;;;;;0.30;0.10;;;16.90;99.90;;;;;;5001062;28;20503;-74
2021/10/03 01:55:44;;;;;;;0.25;0.10;;;16.90;99.90;;;;;;5006126;28;20030;-73
2021/10/03 01:58:11;;;;;;;0.38;0.10;;;16.90;99.90;;;;;;4994525;28;20026;-74
2021/10/03 02:00:39;;;;;;;0.60;0.50;;;16.90;99.90;;;;;;4995729;28;20099;-74
2021/10/03 02:03:06;;;;;;;1.25;0.20;;;16.90;99.90;;;;;;4999501;28;20079;-73
2021/10/03 02:05:40;;;;;;;1.23;0.20;;;16.90;99.90;;;;;;4992649;28;20026;-74
2021/10/03 02:08:07;;;;;;;0.47;0.20;;;16.90;99.90;;;;;;5000297;28;20042;-73
2021/10/03 02:10:34;;;;;;;0.30;0.10;;;16.90;99.90;;;;;;5022424;28;20396;-74
2021/10/03 02:13:00;;;;;;;0.55;0.20;;;16.90;99.90;;;;;;4993593;28;20607;-73
2021/10/03 02:15:25;;;;;;;0.50;0.20;;;17.00;99.90;;;;;;4996686;28;20303;-75
2021/10/03 02:17:51;;;;;;;1.45;0.20;;;17.00;99.90;;;;;;5003057;28;20026;-74
2021/10/03 02:20:18;;;;;;;1.33;0.10;;;17.00;99.90;;;;;;4995516;28;20384;-74
2021/10/03 02:22:44;;;;;;;0.40;0.10;;;17.00;99.90;;;;;;5004664;28;20034;-73
2021/10/03 02:25:11;;;;;;;1.45;0.20;;;17.00;99.90;;;;;;5000980;28;20323;-74
2021/10/03 02:27:36;;;;;;;0.30;0.10;;;17.00;99.90;;;;;;4992828;28;20038;-73
2021/10/03 02:30:05;;;;;;;0.52;0.20;;;17.00;99.90;;;;;;5005362;28;20395;-74
2021/10/03 02:32:30;;;;;;;1.17;0.20;;;17.00;99.90;;;;;;5005482;28;20030;-73
2021/10/03 02:34:56;;;;;;;0.50;0.25;;;16.90;99.90;;;;;;4998863;28;20033;-74
2021/10/03 02:37:23;;;;;;;0.32;0.10;;;16.90;99.90;;;;;;4993225;28;20038;-72
2021/10/03 02:39:48;;;;;;;0.38;0.15;;;16.90;99.90;;;;;;5010118;28;20076;-74
2021/10/03 02:42:14;;;;;;;1.60;0.25;;;16.90;99.90;;;;;;5001554;28;20034;-74
2021/10/03 02:44:40;;;;;;;0.65;0.30;;;16.80;99.90;;;;;;4999745;28;20084;-74
2021/10/03 02:47:12;;;;;;;0.65;0.20;;;16.80;99.90;;;;;;4993371;28;20046;-73
2021/10/03 02:49:39;;;;;;;1.00;0.30;;;16.80;99.90;;;;;;5000681;28;20118;-75
2021/10/03 02:52:06;;;;;;;0.95;0.32;;;16.80;99.90;;;;;;4999511;28;20132;-76
2021/10/03 02:54:31;;;;;;;1.67;0.20;;;16.80;99.90;;;;;;5001949;28;20026;-76
2021/10/03 02:56:57;;;;;;;0.32;0.17;;;16.70;99.90;;;;;;5007194;28;20029;-73
2021/10/03 02:59:24;;;;;;;0.90;0.20;;;16.80;99.90;;;;;;4991481;28;20038;-75
2021/10/03 03:01:49;;;;;;;0.82;0.20;;;16.80;99.90;;;;;;5000239;28;20037;-73
2021/10/03 03:04:16;;;;;;;0.85;0.30;;;16.80;99.90;;;;;;4998827;28;20391;-76
2021/10/03 03:06:41;;;;;;;0.47;0.20;;;16.70;99.90;;;;;;4991453;28;20358;-74
2021/10/03 03:09:07;;;;;;;1.23;0.20;;;16.80;99.90;;;;;;4998276;28;20041;-74
2021/10/03 03:11:32;;;;;;;0.70;0.30;;;16.80;99.90;;;;;;4996033;28;20032;-75
2021/10/03 03:13:58;;;;;;;0.77;0.30;;;16.80;99.90;;;;;;4994432;28;20023;-73
2021/10/03 03:16:23;;;;;;;1.35;0.30;;;16.80;99.90;;;;;;5006346;28;20520;-73
2021/10/03 03:18:49;;;;;;;0.60;0.20;;;16.80;99.90;;;;;;5004713;28;20033;-74
2021/10/03 03:21:14;;;;;;;1.10;0.45;;;16.80;99.90;;;;;;4995229;28;20038;-74
2021/10/03 03:23:40;;;;;;;0.80;0.30;;;16.80;99.90;;;;;;5004024;28;20034;-72
2021/10/03 03:26:06;;;;;;;0.88;0.30;;;16.90;99.90;;;;;;5005450;28;20037;-73
2021/10/03 03:28:31;;;;;;;0.68;0.38;;;17.00;99.90;;;;;;5001606;28;20040;-75
2021/10/03 03:30:57;;;;;;;1.30;0.50;;;17.00;99.90;;;;;;5008991;28;20427;-74
2021/10/03 03:33:22;;;;;;;1.55;0.30;;;17.00;99.90;;;;;;5004041;28;20021;-74
2021/10/03 03:35:48;;;;;;;4.13;0.38;;;16.90;99.90;;;;;;5001435;28;20026;-75
2021/10/03 03:38:14;;;;;;;1.13;0.17;;;16.80;99.90;;;;;;4999359;28;20025;-76
2021/10/03 03:40:40;;;;;;;1.60;0.20;;;16.50;99.90;;;;;;4995233;28;20022;-77
2021/10/03 03:43:05;;;;;;;1.45;0.20;;;16.30;99.90;;;;;;4994868;28;20384;-76
2021/10/03 03:45:33;;;;;;;1.88;0.20;;;16.10;99.90;;;;;;4995783;28;20039;-76
2021/10/03 03:48:01;;;;;;;0.73;0.10;;;16.00;99.90;;;;;;4994718;28;20408;-76
2021/10/03 03:50:29;;;;;;;1.95;0.20;;;15.90;99.90;;;;;;4999768;28;20022;-78
2021/10/03 03:52:56;;;;;;;2.85;0.20;;;15.70;99.90;;;;;;4994903;28;20116;-78
2021/10/03 03:55:21;;;;;;;1.50;0.35;;;15.60;99.90;;;;;;4998125;28;20027;-77
2021/10/03 03:57:49;;;;;;;2.08;0.20;;;15.50;99.90;;;;;;5004475;28;20384;-77
2021/10/03 04:00:15;;;;;;;0.25;0.10;;;15.40;99.90;;;;;;5009088;28;20029;-77
2021/10/03 04:02:40;;;;;;;0.90;0.13;;;15.30;99.90;;;;;;4994316;28;20026;-78
2021/10/03 04:05:07;;;;;;;2.50;0.20;;;15.30;99.90;;;;;;5005988;28;20476;-78
2021/10/03 04:07:32;;;;;;;1.08;0.25;;;15.30;99.90;;;;;;4997485;28;20113;-78
2021/10/03 04:09:58;;;;;;;3.80;0.22;;;15.20;99.90;;;;;;5004751;28;20440;-77
2021/10/03 04:12:24;;;;;;;1.17;0.25;;;15.20;99.90;;;;;;5012519;28;20030;-77
2021/10/03 04:14:49;;;;;;;0.95;0.20;;;15.20;99.90;;;;;;4999941;28;20480;-79
2021/10/03 04:17:15;;;;;;;2.10;0.28;;;15.20;99.90;;;;;;5009420;28;20049;-80
2021/10/03 04:19:40;;;;;;;1.20;0.20;;;15.20;99.90;;;;;;5002063;28;20097;-79
2021/10/03 04:22:06;;;;;;;1.50;0.20;;;15.20;99.90;;;;;;4993786;28;20035;-78
2021/10/03 04:24:31;;;;;;;1.48;0.10;;;15.00;99.90;;;;;;4999707;28;20026;-78
2021/10/03 04:26:57;;;;;;;1.48;0.20;;;14.90;99.90;;;;;;5009807;28;20030;-80
2021/10/03 04:29:22;;;;;;;1.08;0.15;;;14.90;99.90;;;;;;5003874;28;20030;-80
2021/10/03 04:31:48;;;;;;;2.08;0.13;;;14.80;99.90;;;;;;4995029;28;20038;-80
2021/10/03 04:34:13;;;;;;;0.25;0.00;;;14.70;99.90;;;;;;4997109;28;20424;-79
2021/10/03 04:36:39;;;;;;;1.20;0.10;;;14.70;99.90;;;;;;4997954;28;20038;-80
2021/10/03 04:39:05;;;;;;;0.20;0.00;;;14.60;99.90;;;;;;4995309;28;20036;-80
2021/10/03 04:41:31;;;;;;;0.90;0.43;;;14.60;99.90;;;;;;4995133;28;20357;-80
2021/10/03 04:43:56;;;;;;;0.95;0.10;;;14.50;99.90;;;;;;5007439;28;20041;-79
2021/10/03 04:46:22;;;;;;;0.47;0.10;;;14.40;99.90;;;;;;4995254;28;20488;-79
2021/10/03 04:48:47;;;;;;;1.00;0.10;;;14.40;99.90;;;;;;4994626;28;20474;-80
2021/10/03 04:51:13;;;;;;;0.73;0.10;;;14.40;99.90;;;;;;4998593;28;20542;-80
2021/10/03 04:53:38;;;;;;;0.60;0.10;;;14.40;99.90;;;;;;5000789;28;20030;-77
2021/10/03 04:56:04;;;;;;;0.63;0.10;;;14.30;99.90;;;;;;4997940;28;20034;-78
2021/10/03 04:58:30;;;;;;;0.70;0.10;;;14.30;99.90;;;;;;4999825;28;20022;-80
2021/10/03 05:00:56;;;;;;;0.57;0.10;;;14.30;99.90;;;;;;4999960;28;20041;-79
2021/10/03 05:03:21;;;;;;;2.40;0.10;;;14.30;99.90;;;;;;4997024;28;20022;-79
2021/10/03 05:05:47;;;;;;;1.40;0.20;;;14.30;99.90;;;;;;4995131;28;20038;-79
2021/10/03 05:08:13;;;;;;;0.73;0.10;;;14.30;99.90;;;;;;5006787;28;20431;-78
2021/10/03 05:10:39;;;;;;;1.17;0.13;;;14.30;99.90;;;;;;4998598;28;20376;-78
2021/10/03 05:13:06;;;;;;;1.70;0.20;;;14.30;99.90;;;;;;5012094;28;20022;-78
2021/10/03 05:15:31;;;;;;;0.73;0.20;;;14.30;99.90;;;;;;4994479;28;20022;-78
2021/10/03 05:17:57;;;;;;;20.17;2.38;;;14.40;99.90;;;;;;5003354;28;20473;-77
2021/10/03 05:20:23;;;;;;;1.63;0.38;;;14.30;99.90;;;;;;5001686;28;20018;-78
2021/10/03 05:22:48;;;;;;;2.10;0.20;;;14.30;99.90;;;;;;5004516;28;20487;-77
2021/10/03 05:25:14;;;;;;;1.45;0.15;;;14.30;99.90;;;;;;5004456;28;20033;-77
2021/10/03 05:27:39;;;;;;;0.80;0.38;;;14.30;99.90;;;;;;5004638;28;20030;-77
2021/10/03 05:30:06;;;;;;;2.80;0.70;;;14.30;99.90;;;;;;5000838;28;20030;-77
2021/10/03 05:32:32;;;;;;;0.75;0.30;;;14.30;99.90;;;;;;5006926;28;20101;-77
2021/10/03 05:34:57;;;;;;;5.10;0.40;;;14.30;99.90;;;;;;4999828;28;20029;-77
2021/10/03 05:37:23;;;;;;;2.00;0.20;;;14.30;99.90;;;;;;5004666;28;20030;-77
2021/10/03 05:39:48;;;;;;;2.95;0.30;;;14.30;99.90;;;;;;5005578;28;20608;-77
2021/10/03 05:42:14;;;;;;;1.15;0.20;;;14.30;99.90;;;;;;5005531;28;20081;-77
2021/10/03 05:44:39;;;;;;;0.82;0.20;;;14.30;99.90;;;;;;5004919;28;20026;-77
2021/10/03 05:47:05;;;;;;;2.00;0.30;;;14.30;99.90;;;;;;5005538;28;20125;-77
2021/10/03 05:49:30;;;;;;;0.65;0.20;;;14.40;99.90;;;;;;5005317;28;20096;-77
2021/10/03 05:51:56;;;;;;;1.05;0.40;;;14.40;99.90;;;;;;5000574;28;20074;-76
2021/10/03 05:54:21;;;;;;;1.67;0.50;;;14.40;99.90;;;;;;5001652;28;20496;-77
2021/10/03 05:56:47;;;;;;;1.75;0.50;;;14.40;99.90;;;;;;4998247;28;20038;-77
2021/10/03 05:59:12;;;;;;;1.85;0.60;;;14.40;99.90;;;;;;5005016;28;20026;-77
2021/10/03 06:01:41;;;;;;;2.88;0.50;;;14.40;99.90;;;;;;5002041;28;20044;-77
2021/10/03 06:04:08;;;;;;;1.58;0.60;;;14.40;99.90;;;;;;5003085;28;20032;-76
2021/10/03 06:06:33;;;;;;;3.53;0.80;;;14.40;99.90;;;;;;5001993;28;20026;-77
2021/10/03 06:08:59;;;;;;;2.35;0.60;;;14.40;99.90;;;;;;5005666;28;20081;-78
2021/10/03 06:11:25;;;;;;;1.92;0.80;;;14.40;99.90;;;;;;4998725;28;20027;-78
2021/10/03 06:13:54;;;;;;;4.18;1.00;;;14.40;99.90;;;;;;5008327;28;20113;-78
2021/10/03 06:16:19;;;;;;;4.25;0.77;;;14.40;99.90;;;;;;5006227;28;20153;-77
2021/10/03 06:18:45;;;;;;;1.50;0.80;;;14.40;99.90;;;;;;4997781;28;20025;-78
2021/10/03 06:21:14;;;;;;;2.92;0.80;;;14.40;99.90;;;;;;5011904;28;20494;-78
2021/10/03 06:23:41;;;;;;;5.28;0.60;;;14.40;99.90;;;;;;4992198;28;20026;-78
2021/10/03 06:26:07;;;;;;;3.20;0.90;;;14.40;99.90;;;;;;5001005;28;20037;-78
2021/10/03 06:28:32;;;;;;;1.63;0.75;;;14.40;99.90;;;;;;5007343;28;20034;-78
2021/10/03 06:30:58;;;;;;;3.60;0.90;;;14.40;99.90;;;;;;4996183;28;20038;-78
2021/10/03 06:33:24;;;;;;;2.47;0.70;;;14.40;99.90;;;;;;4991882;28;20164;-78
2021/10/03 06:35:49;;;;;;;2.45;0.88;;;14.50;99.90;;;;;;4998379;28;20026;-78
2021/10/03 06:38:15;;;;;;;2.78;0.73;;;14.40;99.90;;;;;;5000657;28;20026;-78
2021/10/03 06:40:42;;;;;;;2.70;1.00;;;14.50;99.90;;;;;;4999931;28;20033;-77
2021/10/03 06:43:07;;;;;;;4.28;1.00;;;14.40;99.90;;;;;;5002755;28;20112;-77
2021/10/03 06:45:33;;;;;;;2.88;1.08;;;14.50;99.90;;;;;;4998742;28;20129;-78
2021/10/03 06:47:59;;;;;;;5.80;1.10;;;14.50;99.90;;;;;;5012787;28;20045;-77
2021/10/03 06:50:26;;;;;;;4.70;1.50;;;14.40;99.90;;;;;;5012130;28;20436;-77
2021/10/03 06:52:51;;;;;;;4.25;1.45;;;14.40;99.90;;;;;;5011198;28;20049;-77
2021/10/03 06:55:17;;;;;;;3.10;1.35;;;14.50;99.90;;;;;;5011748;28;20468;-78
2021/10/03 06:57:42;;;;;;;4.63;1.10;;;14.50;99.90;;;;;;5006617;28;20045;-77
2021/10/03 07:00:08;;;;;;;4.20;1.45;;;14.50;99.90;;;;;;5002461;28;20029;-77
2021/10/03 07:02:34;;;;;;;2.70;1.20;;;14.50;99.90;;;;;;5000917;28;20037;-77
2021/10/03 07:05:00;;;;;;;4.55;1.50;;;14.40;99.90;;;;;;5004700;28;20116;-77
2021/10/03 07:07:25;;;;;;;3.58;1.30;;;14.40;99.90;;;;;;4996946;28;20042;-77
2021/10/03 07:09:51;;;;;;;3.88;1.38;;;14.40;99.90;;;;;;5001227;28;20038;-77
2021/10/03 07:12:17;;;;;;;3.60;1.70;;;14.40;99.90;;;;;;4995142;28;20035;-77
2021/10/03 07:14:42;;;;;;;3.33;1.67;;;14.40;99.90;;;;;;4996872;28;20038;-78
2021/10/03 07:17:09;;;;;;;5.60;1.50;;;14.40;99.90;;;;;;5012414;28;20438;-77
2021/10/03 07:19:36;;;;;;;5.47;2.20;;;14.40;99.90;;;;;;5009203;28;20040;-77
2021/10/03 07:22:02;;;;;;;2.38;1.40;;;14.50;99.90;;;;;;4999204;28;20109;-77
2021/10/03 07:24:28;;;;;;;2.88;1.80;;;14.50;99.90;;;;;;5002115;28;20026;-78
2021/10/03 07:26:53;;;;;;;3.28;2.20;;;14.40;99.90;;;;;;5013446;28;20038;-77
2021/10/03 07:29:19;;;;;;;4.07;2.30;;;14.40;99.90;;;;;;5001337;28;20030;-77
2021/10/03 07:31:45;;;;;;;3.45;2.47;;;14.40;99.90;;;;;;5005834;28;20061;-77
2021/10/03 07:34:10;;;;;;;4.55;2.80;;;14.40;99.90;;;;;;4995696;28;20022;-77
2021/10/03 07:36:36;;;;;;;3.50;2.60;;;14.40;99.90;;;;;;4996490;28;20052;-76
2021/10/03 07:39:02;;;;;;;4.68;2.50;;;14.40;99.90;;;;;;5009531;28;20034;-77
2021/10/03 07:41:28;;;;;;;6.68;3.05;;;14.40;99.90;;;;;;5004004;28;20034;-77
2021/10/03 07:43:54;;;;;;;3.20;2.30;;;14.40;99.90;;;;;;4998307;28;20033;-77
2021/10/03 07:46:21;;;;;;;3.28;2.30;;;14.40;99.90;;;;;;5011890;28;20054;-75
2021/10/03 07:48:47;;;;;;;4.55;3.00;;;14.40;99.90;;;;;;4996136;28;20084;-76
2021/10/03 07:51:13;;;;;;;5.32;3.00;;;14.40;99.90;;;;;;4994773;28;20030;-76
2021/10/03 07:53:40;;;;;;;5.53;2.60;;;14.50;99.90;;;;;;5005677;28;20030;-77
2021/10/03 07:56:05;;;;;;;3.33;2.25;;;14.50;99.90;;;;;;4995348;28;20018;-76
2021/10/03 07:58:31;;;;;;;6.18;2.50;;;14.50;99.90;;;;;;4996052;28;20461;-76
2021/10/03 08:00:57;;;;;;;3.63;2.83;;;14.50;99.90;;;;;;4995291;28;20570;-75
2021/10/03 08:03:22;;;;;;;3.88;2.50;;;14.50;99.90;;;;;;4994289;28;20030;-76
2021/10/03 08:05:48;;;;;;;3.42;1.95;;;14.50;99.90;;;;;;4996813;28;20065;-76
2021/10/03 08:08:14;;;;;;;2.63;1.60;;;14.40;99.90;;;;;;4994911;28;20365;-76
2021/10/03 08:10:41;;;;;;;4.15;2.03;;;14.40;99.90;;;;;;4995642;28;20014;-77
2021/10/03 08:13:07;;;;;;;2.60;1.55;;;14.40;99.90;;;;;;4993486;28;20042;-76
2021/10/03 08:15:34;;;;;;;2.78;0.47;;;14.40;99.90;;;;;;5005789;28;20113;-77
2021/10/03 08:18:00;;;;;;;1.70;0.40;;;14.40;99.90;;;;;;4995689;28;20034;-79
2021/10/03 08:20:25;;;;;;;1.70;0.40;;;14.20;99.90;;;;;;4999682;28;20031;-80
2021/10/03 08:22:52;;;;;;;1.02;0.30;;;14.10;99.90;;;;;;4998522;28;20038;-82
2021/10/03 08:25:18;;;;;;;1.33;0.30;;;14.00;99.90;;;;;;5003936;28;20034;-84
2021/10/03 08:27:44;;;;;;;1.20;0.30;;;13.80;99.90;;;;;;4996699;28;20413;-84
2021/10/03 08:30:11;;;;;;;1.40;0.40;;;13.60;99.90;;;;;;4996956;28;20033;-82
2021/10/03 08:32:37;;;;;;;2.10;0.20;;;13.50;99.90;;;;;;5001359;28;20540;-84
2021/10/03 08:35:04;;;;;;;2.80;0.35;;;13.40;99.90;;;;;;4999579;28;20022;-93
2021/10/03 08:37:30;;;;;;;3.95;0.28;;;13.30;99.90;;;;;;5006106;28;20081;-91
2021/10/03 08:39:56;;;;;;;2.25;0.30;;;13.20;99.90;;;;;;5012987;28;20071;-89
2021/10/03 08:42:22;;;;;;;3.28;0.30;;;13.20;99.90;;;;;;5022125;28;20112;-89
2021/10/03 08:44:47;;;;;;;2.88;0.30;;;13.20;99.90;;;;;;5017150;28;20033;-91
2021/10/03 08:47:14;;;;;;;2.75;0.65;;;13.20;99.90;;;;;;5012631;28;20117;-91
2021/10/03 08:49:39;;;;;;;2.15;0.25;;;13.10;99.90;;;;;;5015874;28;20550;-91
2021/10/03 08:52:06;;;;;;;1.60;0.28;;;13.10;99.90;;;;;;5017338;28;20029;-92
2021/10/03 08:54:37;;;;;;;1.35;0.30;;;13.10;99.90;;;;;;5000796;28;20050;-90
2021/10/03 08:57:03;;;;;;;3.30;0.40;;;13.10;99.90;;;;;;5010357;28;20484;-88
2021/10/03 08:59:28;;;;;;;3.22;0.40;;;13.10;99.90;;;;;;4999935;28;20085;-90
2021/10/03 09:01:56;;;;;;;2.30;0.40;;;13.10;99.90;;;;;;5008493;28;20034;-89
2021/10/03 09:04:37;;;;;;;4.97;0.40;;;13.10;99.90;;;;;;5004884;28;20018;-88
2021/10/03 09:07:06;;;;;;;2.50;0.50;;;13.20;99.90;;;;;;5001965;28;20025;-89
2021/10/03 09:09:55;;;;;;;4.68;0.50;;;13.10;99.90;;;;;;5012995;28;20025;-89
2021/10/03 09:12:39;;;;;;;2.80;0.40;;;13.20;99.90;;;;;;5010312;28;20067;-89
2021/10/03 09:15:19;;;;;;;2.28;0.40;;;13.20;99.90;;;;;;5000380;28;20022;-88
2021/10/03 09:17:55;;;;;;;1.63;0.50;;;13.20;99.90;;;;;;4999525;28;20027;-87
2021/10/03 09:20:26;;;;;;;2.25;0.40;;;13.20;99.90;;;;;;5012583;28;20091;-86
2021/10/03 09:23:17;;;;;;;1.17;0.38;;;13.30;99.90;;;;;;5009787;28;20385;-90
2021/10/03 09:25:54;;;;;;;0.70;0.40;;;13.20;99.90;;;;;;5012015;28;20038;-91
2021/10/03 09:28:25;;;;;;;3.20;0.40;;;13.20;99.90;;;;;;5008359;28;20444;-89
2021/10/03 09:31:01;;;;;;;1.60;0.30;;;13.20;99.90;;;;;;5014989;28;20392;-89
2021/10/03 09:33:46;;;;;;;1.60;0.35;;;13.30;99.90;;;;;;5006135;28;20022;-89
2021/10/03 09:36:14;;;;;;;1.38;0.30;;;13.30;99.90;;;;;;5005738;28;20018;-92
2021/10/03 09:38:51;;;;;;;1.38;0.32;;;13.30;99.90;;;;;;5008826;28;20025;-92
2021/10/03 09:41:20;;;;;;;1.55;0.38;;;13.40;99.90;;;;;;5016203;28;20057;-92
2021/10/03 09:43:47;;;;;;;2.60;0.40;;;13.40;99.90;;;;;;5009485;28;20034;-93
2021/10/03 09:46:52;;;;;;;1.05;0.30;;;13.40;99.90;;;;;;5005716;28;20049;-91
2021/10/03 09:49:26;;;;;;;1.20;0.30;;;13.50;99.90;;;;;;4930756;29;20031;-92
2021/10/03 09:51:52;;;;;;;1.58;0.28;;;13.60;99.90;;;;;;4931861;29;20050;-90
2021/10/03 09:54:19;;;;;;;0.77;0.30;;;13.60;99.90;;;;;;4975537;28;20495;-92
2021/10/03 09:56:46;;;;;;;1.05;0.30;;;13.60;99.90;;;;;;5005198;28;20041;-93
2021/10/03 09:59:12;;;;;;;2.35;0.38;;;13.70;99.90;;;;;;4999665;28;20271;-86
2021/10/03 10:01:46;;;;;;;0.40;0.20;;;13.80;99.90;;;;;;4996813;28;20022;-87
2021/10/03 10:04:17;;;;;;;1.33;0.22;;;13.80;99.90;;;;;;5000392;28;20592;-85
2021/10/03 10:06:46;;;;;;;0.80;0.20;;;13.90;99.90;;;;;;5004277;28;20030;-85
2021/10/03 10:09:17;;;;;;;2.70;0.28;;;14.00;99.90;;;;;;5005320;28;20500;-86
2021/10/03 10:11:55;;;;;;;1.35;0.20;;;14.00;99.90;;;;;;5005321;28;20042;-86
2021/10/03 10:14:36;;;;;;;0.40;0.20;;;14.10;99.90;;;;;;5003318;28;20044;-87
2021/10/03 10:17:28;;;;;;;3.03;0.30;;;14.10;99.90;;;;;;5005768;28;20024;-85
2021/10/03 10:19:55;;;;;;;0.80;0.20;;;14.10;99.90;;;;;;5005858;28;20030;-84
2021/10/03 10:22:28;;;;;;;2.65;0.40;;;14.10;99.90;;;;;;5002767;28;20034;-88
2021/10/03 10:24:59;;;;;;;0.85;0.40;;;14.10;99.90;;;;;;5019421;28;20445;-87
2021/10/03 10:27:25;;;;;;;1.25;0.40;;;14.20;99.90;;;;;;5001697;28;20105;-86
2021/10/03 10:29:53;;;;;;;2.15;0.57;;;14.30;99.90;;;;;;5009498;28;20030;-89
2021/10/03 10:32:24;;;;;;;1.58;0.57;;;14.30;99.90;;;;;;5017446;28;20026;-87
2021/10/03 10:35:08;;;;;;;2.00;0.80;;;14.40;99.90;;;;;;4995270;28;20034;-83
2021/10/03 10:37:49;;;;;;;2.38;0.77;;;14.50;99.90;;;;;;4995528;28;20030;-86
2021/10/03 10:40:23;;;;;;;2.65;1.27;;;14.50;99.90;;;;;;4995606;28;20119;-86
2021/10/03 10:43:04;;;;;;;2.28;0.95;;;14.60;99.90;;;;;;4994817;28;20115;-85
2021/10/03 10:45:30;;;;;;;3.33;1.35;;;14.60;99.90;;;;;;5012581;28;20495;-84
2021/10/03 10:48:11;;;;;;;2.28;1.30;;;14.70;99.90;;;;;;5009195;28;20048;-81
2021/10/03 10:50:43;;;;;;;3.17;1.23;;;14.80;99.90;;;;;;5004586;28;20026;-84
2021/10/03 10:53:25;;;;;;;2.20;1.52;;;14.80;99.90;;;;;;5003089;28;20040;-84
2021/10/03 10:56:18;;;;;;;1.98;1.13;;;14.80;99.90;;;;;;5010724;28;20034;-84
2021/10/03 10:59:03;;;;;;;1.58;0.85;;;14.90;99.90;;;;;;4991530;28;20063;-83
2021/10/03 11:01:36;;;;;;;2.70;1.00;;;15.00;99.90;;;;;;5002668;28;20037;-85
2021/10/03 11:04:24;;;;;;;2.38;1.27;;;15.00;99.90;;;;;;5002855;28;20025;-85
2021/10/03 11:06:51;;;;;;;2.53;1.10;;;15.00;99.90;;;;;;4997886;28;20479;-83
2021/10/03 11:09:16;;;;;;;1.23;0.60;;;15.00;99.90;;;;;;4997807;28;20436;-83
2021/10/03 11:11:54;;;;;;;2.50;0.70;;;14.90;99.90;;;;;;5004764;28;20030;-83
2021/10/03 11:14:22;;;;;;;1.60;0.80;;;14.90;99.90;;;;;;4999194;28;20061;-82
2021/10/03 11:16:50;;;;;;;1.42;0.88;;;14.90;99.90;;;;;;4995029;28;20023;-83
2021/10/03 11:19:32;;;;;;;1.88;0.70;;;14.90;99.90;;;;;;5007612;28;20080;-83
2021/10/03 11:22:14;;;;;;;0.90;0.50;;;14.90;99.90;;;;;;5004577;28;20028;-83
2021/10/03 11:24:43;;;;;;;1.92;0.60;;;14.90;99.90;;;;;;5007551;28;20034;-83
2021/10/03 11:27:12;;;;;;;0.60;0.40;;;14.90;99.90;;;;;;5006350;28;20033;-83
2021/10/03 11:29:40;;;;;;;1.20;0.50;;;15.00;99.90;;;;;;4993215;28;20061;-84
2021/10/03 11:32:11;;;;;;;1.10;0.47;;;15.10;99.90;;;;;;5003737;28;20030;-86
2021/10/03 11:35:07;;;;;;;1.23;0.60;;;15.10;99.90;;;;;;5000668;28;20101;-85
2021/10/03 11:37:33;;;;;;;1.92;0.73;;;15.10;99.90;;;;;;5006295;28;20062;-85
2021/10/03 11:40:15;;;;;;;2.25;1.10;;;15.10;99.90;;;;;;5006715;28;20554;-83
2021/10/03 11:42:42;;;;;;;1.67;0.93;;;15.10;99.90;;;;;;5009860;28;20121;-85
2021/10/03 11:45:17;;;;;;;1.98;1.17;;;15.00;99.90;;;;;;5004511;28;20030;-85
2021/10/03 11:47:49;;;;;;;1.95;1.20;;;15.00;99.90;;;;;;4999442;28;20386;-86
2021/10/03 11:50:24;;;;;;;1.90;1.08;;;14.90;99.90;;;;;;4999852;28;20038;-85
2021/10/03 11:52:56;;;;;;;2.45;1.17;;;14.90;99.90;;;;;;5007961;28;20031;-86
2021/10/03 11:55:31;;;;;;;;;;;14.90;99.90;;;;;;5011205;28;20033;-84
2021/10/03 11:58:04;;;;;;;3.20;0.80;;;14.90;99.90;;;;;;5004013;28;19921;-86
2021/10/03 12:00:30;;;;;;;1.90;0.95;;;14.90;99.90;;;;;;5000974;28;20023;-85
2021/10/03 12:03:04;;;;;;;2.00;1.00;;;15.00;99.90;;;;;;4998157;28;20045;-84
2021/10/03 12:05:33;;;;;;;2.83;1.10;;;15.00;99.90;;;;;;5004510;28;20396;-84
2021/10/03 12:08:08;;;;;;;3.10;1.00;;;15.10;99.90;;;;;;5013566;28;20068;-84
2021/10/03 12:11:01;;;;;;;1.70;0.98;;;15.20;99.90;;;;;;5004294;28;20042;-84
2021/10/03 12:13:28;;;;;;;1.60;0.90;;;15.40;99.90;;;;;;5000434;28;20042;-85
2021/10/03 12:16:01;;;;;;;1.67;0.85;;;15.40;99.90;;;;;;5008566;28;20091;-85
2021/10/03 12:18:26;;;;;;;2.88;1.85;;;15.40;99.90;;;;;;5005743;28;20545;-85
2021/10/03 12:20:55;;;;;;;2.10;1.13;;;15.40;99.90;;;;;;4999884;28;20026;-85
2021/10/03 12:23:38;;;;;;;2.85;1.17;;;15.30;99.90;;;;;;5000936;28;20034;-85
2021/10/03 12:26:10;;;;;;;1.73;1.08;;;15.30;99.90;;;;;;5001253;28;20033;-84
2021/10/03 12:28:57;;;;;;;1.83;0.77;;;15.20;99.90;;;;;;5006501;28;20029;-84
2021/10/03 12:31:39;;;;;;;1.77;1.20;;;15.20;99.90;;;;;;4999201;28;20133;-84
2021/10/03 12:34:06;;;;;;;;;;;15.10;99.90;;;;;;5003009;28;20031;-84
2021/10/03 12:36:32;;;;;;;1.48;0.80;;;15.00;99.90;;;;;;5001174;28;20005;-85
2021/10/03 12:38:58;;;;;;;3.28;1.45;;;15.00;99.90;;;;;;4999766;28;20108;-86
2021/10/03 12:41:23;;;;;;;1.80;1.33;;;15.10;99.90;;;;;;4996721;28;20032;-86
2021/10/03 12:43:50;;;;;;;1.60;1.02;;;15.10;99.90;;;;;;5000885;28;20410;-84
2021/10/03 12:46:16;;;;;;;1.50;1.13;;;15.10;99.90;;;;;;4999804;28;20049;-84
2021/10/03 12:48:42;;;;;;;1.45;0.90;;;15.00;99.90;;;;;;5001002;28;20038;-85
2021/10/03 12:51:08;;;;;;;1.40;0.90;;;14.90;99.90;;;;;;5002845;28;20026;-85
2021/10/03 12:53:34;;;;;;;4.18;1.73;;;14.90;99.90;;;;;;5006738;28;20404;-86